sensor_id;sensor_type;location;lat;lon;timestamp;P1;durP1;ratioP1;P2;durP2;ratioP2
4676;SDS011;2352;48.180;11.478;2023-02-21T00:00:48;2.10;;;1.90;;
4676;SDS011;2352;48.180;11.478;2023-02-21T00:04:08;4.93;;;1.47;;
4676;SDS011;2352;48.180;11.478;2023-02-21T00:07:29;4.17;;;1.40;;
4676;SDS011;2352;48.180;11.478;2023-02-21T00:10:49;2.23;;;1.73;;
4676;SDS011;2352;48.180;11.478;2023-02-21T00:14:11;1.77;;;1.53;;
4676;SDS011;2352;48.180;11.478;2023-02-21T00:17:31;1.70;;;1.60;;
4676;SDS011;2352;48.180;11.478;2023-02-21T00:20:51;1.23;;;1.13;;
4676;SDS011;2352;48.180;11.478;2023-02-21T00:24:12;1.63;;;1.40;;
4676;SDS011;2352;48.180;11.478;2023-02-21T00:27:33;1.83;;;1.40;;
4676;SDS011;2352;48.180;11.478;2023-02-21T00:30:55;2.60;;;1.60;;
4676;SDS011;2352;48.180;11.478;2023-02-21T00:34:16;1.40;;;1.17;;
4676;SDS011;2352;48.180;11.478;2023-02-21T00:37:36;2.00;;;1.80;;
4676;SDS011;2352;48.180;11.478;2023-02-21T00:40:56;3.47;;;1.50;;
4676;SDS011;2352;48.180;11.478;2023-02-21T00:44:17;1.60;;;1.23;;
4676;SDS011;2352;48.180;11.478;2023-02-21T00:47:39;1.70;;;1.50;;
4676;SDS011;2352;48.180;11.478;2023-02-21T00:50:59;1.83;;;1.73;;
4676;SDS011;2352;48.180;11.478;2023-02-21T00:54:19;1.47;;;1.37;;
4676;SDS011;2352;48.180;11.478;2023-02-21T00:57:40;3.00;;;2.00;;
4676;SDS011;2352;48.180;11.478;2023-02-21T01:01:00;1.70;;;1.60;;
4676;SDS011;2352;48.180;11.478;2023-02-21T01:04:22;1.83;;;1.73;;
4676;SDS011;2352;48.180;11.478;2023-02-21T01:07:43;2.20;;;1.60;;
4676;SDS011;2352;48.180;11.478;2023-02-21T01:11:03;1.90;;;1.77;;
4676;SDS011;2352;48.180;11.478;2023-02-21T01:14:23;3.27;;;2.53;;
4676;SDS011;2352;48.180;11.478;2023-02-21T01:17:44;2.23;;;1.90;;
4676;SDS011;2352;48.180;11.478;2023-02-21T01:21:06;2.00;;;1.87;;
4676;SDS011;2352;48.180;11.478;2023-02-21T01:24:31;2.27;;;2.07;;
4676;SDS011;2352;48.180;11.478;2023-02-21T01:27:52;3.03;;;1.77;;
4676;SDS011;2352;48.180;11.478;2023-02-21T01:31:15;5.03;;;1.80;;
4676;SDS011;2352;48.180;11.478;2023-02-21T01:34:36;3.27;;;2.20;;
4676;SDS011;2352;48.180;11.478;2023-02-21T01:37:58;2.90;;;2.10;;
4676;SDS011;2352;48.180;11.478;2023-02-21T01:41:19;2.07;;;1.83;;
4676;SDS011;2352;48.180;11.478;2023-02-21T01:44:41;2.77;;;2.37;;
4676;SDS011;2352;48.180;11.478;2023-02-21T01:48:02;2.00;;;1.90;;
4676;SDS011;2352;48.180;11.478;2023-02-21T01:51:25;7.40;;;2.80;;
4676;SDS011;2352;48.180;11.478;2023-02-21T01:54:52;2.87;;;1.97;;
4676;SDS011;2352;48.180;11.478;2023-02-21T01:58:14;2.17;;;1.77;;
4676;SDS011;2352;48.180;11.478;2023-02-21T02:01:36;2.80;;;1.93;;
4676;SDS011;2352;48.180;11.478;2023-02-21T02:05:01;1.80;;;1.67;;
4676;SDS011;2352;48.180;11.478;2023-02-21T02:08:24;2.03;;;1.77;;
4676;SDS011;2352;48.180;11.478;2023-02-21T02:11:59;2.43;;;1.70;;
4676;SDS011;2352;48.180;11.478;2023-02-21T02:15:28;2.20;;;2.00;;
4676;SDS011;2352;48.180;11.478;2023-02-21T02:18:43;2.27;;;2.07;;
4676;SDS011;2352;48.180;11.478;2023-02-21T02:22:04;2.10;;;1.80;;
4676;SDS011;2352;48.180;11.478;2023-02-21T02:25:33;1.83;;;1.60;;
4676;SDS011;2352;48.180;11.478;2023-02-21T02:28:53;3.33;;;2.10;;
4676;SDS011;2352;48.180;11.478;2023-02-21T02:32:19;3.83;;;2.30;;
4676;SDS011;2352;48.180;11.478;2023-02-21T02:35:35;2.43;;;2.23;;
4676;SDS011;2352;48.180;11.478;2023-02-21T02:38:45;3.87;;;2.30;;
4676;SDS011;2352;48.180;11.478;2023-02-21T02:41:56;4.47;;;2.37;;
4676;SDS011;2352;48.180;11.478;2023-02-21T02:45:10;3.03;;;1.70;;
4676;SDS011;2352;48.180;11.478;2023-02-21T02:48:19;2.63;;;2.43;;
4676;SDS011;2352;48.180;11.478;2023-02-21T02:51:26;2.13;;;1.70;;
4676;SDS011;2352;48.180;11.478;2023-02-21T02:54:30;2.10;;;1.90;;
4676;SDS011;2352;48.180;11.478;2023-02-21T02:57:33;3.03;;;1.77;;
4676;SDS011;2352;48.180;11.478;2023-02-21T03:00:43;2.53;;;2.00;;
4676;SDS011;2352;48.180;11.478;2023-02-21T03:03:57;2.33;;;2.10;;
4676;SDS011;2352;48.180;11.478;2023-02-21T03:07:15;3.23;;;1.90;;
4676;SDS011;2352;48.180;11.478;2023-02-21T03:10:24;2.70;;;1.87;;
4676;SDS011;2352;48.180;11.478;2023-02-21T03:13:39;2.17;;;1.63;;
4676;SDS011;2352;48.180;11.478;2023-02-21T03:16:47;2.43;;;2.23;;
4676;SDS011;2352;48.180;11.478;2023-02-21T03:19:53;2.27;;;2.07;;
4676;SDS011;2352;48.180;11.478;2023-02-21T03:23:00;3.50;;;1.93;;
4676;SDS011;2352;48.180;11.478;2023-02-21T03:26:05;2.47;;;2.27;;
4676;SDS011;2352;48.180;11.478;2023-02-21T03:29:11;1.40;;;1.30;;
4676;SDS011;2352;48.180;11.478;2023-02-21T03:32:16;2.00;;;1.90;;
4676;SDS011;2352;48.180;11.478;2023-02-21T03:35:22;2.07;;;1.93;;
4676;SDS011;2352;48.180;11.478;2023-02-21T03:38:31;1.97;;;1.70;;
4676;SDS011;2352;48.180;11.478;2023-02-21T03:41:34;2.90;;;2.00;;
4676;SDS011;2352;48.180;11.478;2023-02-21T03:44:37;4.83;;;1.87;;
4676;SDS011;2352;48.180;11.478;2023-02-21T03:47:40;2.90;;;2.03;;
4676;SDS011;2352;48.180;11.478;2023-02-21T03:50:43;2.67;;;2.43;;
4676;SDS011;2352;48.180;11.478;2023-02-21T03:53:47;2.17;;;2.03;;
4676;SDS011;2352;48.180;11.478;2023-02-21T03:56:50;1.87;;;1.77;;
4676;SDS011;2352;48.180;11.478;2023-02-21T03:59:54;4.00;;;1.80;;
4676;SDS011;2352;48.180;11.478;2023-02-21T04:02:57;2.10;;;1.97;;
4676;SDS011;2352;48.180;11.478;2023-02-21T04:06:00;2.03;;;1.90;;
4676;SDS011;2352;48.180;11.478;2023-02-21T04:09:05;3.47;;;2.07;;
4676;SDS011;2352;48.180;11.478;2023-02-21T04:12:08;2.50;;;2.30;;
4676;SDS011;2352;48.180;11.478;2023-02-21T04:15:12;2.00;;;1.80;;
4676;SDS011;2352;48.180;11.478;2023-02-21T04:18:15;2.20;;;2.00;;
4676;SDS011;2352;48.180;11.478;2023-02-21T04:21:18;3.13;;;2.23;;
4676;SDS011;2352;48.180;11.478;2023-02-21T04:24:22;2.00;;;1.90;;
4676;SDS011;2352;48.180;11.478;2023-02-21T04:27:25;2.10;;;2.00;;
4676;SDS011;2352;48.180;11.478;2023-02-21T04:30:28;2.70;;;2.30;;
4676;SDS011;2352;48.180;11.478;2023-02-21T04:33:31;6.70;;;2.67;;
4676;SDS011;2352;48.180;11.478;2023-02-21T04:36:34;2.20;;;2.10;;
4676;SDS011;2352;48.180;11.478;2023-02-21T04:39:39;4.83;;;2.27;;
4676;SDS011;2352;48.180;11.478;2023-02-21T04:42:42;2.53;;;2.10;;
4676;SDS011;2352;48.180;11.478;2023-02-21T04:45:45;4.20;;;2.47;;
4676;SDS011;2352;48.180;11.478;2023-02-21T04:48:49;2.67;;;2.43;;
4676;SDS011;2352;48.180;11.478;2023-02-21T04:51:53;4.43;;;2.30;;
4676;SDS011;2352;48.180;11.478;2023-02-21T04:54:58;6.00;;;2.93;;
4676;SDS011;2352;48.180;11.478;2023-02-21T04:58:01;2.67;;;2.47;;
4676;SDS011;2352;48.180;11.478;2023-02-21T05:01:04;4.30;;;2.30;;
4676;SDS011;2352;48.180;11.478;2023-02-21T05:04:07;4.87;;;2.47;;
4676;SDS011;2352;48.180;11.478;2023-02-21T05:07:10;4.47;;;2.57;;
4676;SDS011;2352;48.180;11.478;2023-02-21T05:10:14;5.70;;;2.43;;
4676;SDS011;2352;48.180;11.478;2023-02-21T05:13:18;3.20;;;2.90;;
4676;SDS011;2352;48.180;11.478;2023-02-21T05:16:21;4.70;;;2.73;;
4676;SDS011;2352;48.180;11.478;2023-02-21T05:19:26;2.60;;;2.40;;
4676;SDS011;2352;48.180;11.478;2023-02-21T05:22:29;2.93;;;2.17;;
4676;SDS011;2352;48.180;11.478;2023-02-21T05:25:33;2.37;;;2.17;;
4676;SDS011;2352;48.180;11.478;2023-02-21T05:28:36;3.03;;;2.37;;
4676;SDS011;2352;48.180;11.478;2023-02-21T05:31:40;2.67;;;2.47;;
4676;SDS011;2352;48.180;11.478;2023-02-21T05:34:43;2.33;;;2.13;;
4676;SDS011;2352;48.180;11.478;2023-02-21T05:37:47;2.10;;;1.90;;
4676;SDS011;2352;48.180;11.478;2023-02-21T05:40:52;5.43;;;2.63;;
4676;SDS011;2352;48.180;11.478;2023-02-21T05:43:55;2.57;;;2.37;;
4676;SDS011;2352;48.180;11.478;2023-02-21T05:46:58;2.50;;;2.10;;
4676;SDS011;2352;48.180;11.478;2023-02-21T05:50:02;2.23;;;2.03;;
4676;SDS011;2352;48.180;11.478;2023-02-21T05:53:06;2.40;;;1.90;;
4676;SDS011;2352;48.180;11.478;2023-02-21T05:56:12;2.33;;;1.93;;
4676;SDS011;2352;48.180;11.478;2023-02-21T05:59:16;3.73;;;3.10;;
4676;SDS011;2352;48.180;11.478;2023-02-21T06:02:20;3.30;;;3.10;;
4676;SDS011;2352;48.180;11.478;2023-02-21T06:05:23;3.67;;;3.37;;
4676;SDS011;2352;48.180;11.478;2023-02-21T06:08:26;2.17;;;1.97;;
4676;SDS011;2352;48.180;11.478;2023-02-21T06:11:31;4.30;;;3.03;;
4676;SDS011;2352;48.180;11.478;2023-02-21T06:14:37;2.87;;;2.63;;
4676;SDS011;2352;48.180;11.478;2023-02-21T06:17:40;4.03;;;2.40;;
4676;SDS011;2352;48.180;11.478;2023-02-21T06:20:44;3.27;;;3.03;;
4676;SDS011;2352;48.180;11.478;2023-02-21T06:23:47;3.23;;;3.03;;
4676;SDS011;2352;48.180;11.478;2023-02-21T06:26:51;3.37;;;3.07;;
4676;SDS011;2352;48.180;11.478;2023-02-21T06:29:54;3.60;;;2.93;;
4676;SDS011;2352;48.180;11.478;2023-02-21T06:32:57;5.43;;;4.63;;
4676;SDS011;2352;48.180;11.478;2023-02-21T06:36:04;6.97;;;6.40;;
4676;SDS011;2352;48.180;11.478;2023-02-21T06:39:08;4.70;;;3.20;;
4676;SDS011;2352;48.180;11.478;2023-02-21T06:42:15;4.70;;;2.97;;
4676;SDS011;2352;48.180;11.478;2023-02-21T06:45:18;2.87;;;2.67;;
4676;SDS011;2352;48.180;11.478;2023-02-21T06:48:21;2.90;;;2.60;;
4676;SDS011;2352;48.180;11.478;2023-02-21T06:51:24;2.40;;;2.20;;
4676;SDS011;2352;48.180;11.478;2023-02-21T06:54:30;2.83;;;2.57;;
4676;SDS011;2352;48.180;11.478;2023-02-21T06:57:34;2.40;;;2.27;;
4676;SDS011;2352;48.180;11.478;2023-02-21T07:00:37;2.40;;;2.20;;
4676;SDS011;2352;48.180;11.478;2023-02-21T07:03:40;2.73;;;2.53;;
4676;SDS011;2352;48.180;11.478;2023-02-21T07:06:44;3.00;;;2.80;;
4676;SDS011;2352;48.180;11.478;2023-02-21T07:09:47;4.43;;;2.93;;
4676;SDS011;2352;48.180;11.478;2023-02-21T07:12:51;3.10;;;2.80;;
4676;SDS011;2352;48.180;11.478;2023-02-21T07:15:54;4.47;;;3.20;;
4676;SDS011;2352;48.180;11.478;2023-02-21T07:18:57;2.60;;;2.40;;
4676;SDS011;2352;48.180;11.478;2023-02-21T07:22:00;3.37;;;3.03;;
4676;SDS011;2352;48.180;11.478;2023-02-21T07:25:04;4.70;;;2.67;;
4676;SDS011;2352;48.180;11.478;2023-02-21T07:28:09;4.03;;;3.73;;
4676;SDS011;2352;48.180;11.478;2023-02-21T07:31:12;3.17;;;2.87;;
4676;SDS011;2352;48.180;11.478;2023-02-21T07:34:18;4.20;;;3.77;;
4676;SDS011;2352;48.180;11.478;2023-02-21T07:37:23;4.90;;;4.40;;
4676;SDS011;2352;48.180;11.478;2023-02-21T07:40:27;7.97;;;2.60;;
4676;SDS011;2352;48.180;11.478;2023-02-21T07:43:32;3.43;;;2.70;;
4676;SDS011;2352;48.180;11.478;2023-02-21T07:46:34;2.60;;;2.40;;
4676;SDS011;2352;48.180;11.478;2023-02-21T07:49:37;3.53;;;2.63;;
4676;SDS011;2352;48.180;11.478;2023-02-21T07:52:41;2.80;;;2.60;;
4676;SDS011;2352;48.180;11.478;2023-02-21T07:55:44;3.27;;;3.00;;
4676;SDS011;2352;48.180;11.478;2023-02-21T07:58:48;4.60;;;2.93;;
4676;SDS011;2352;48.180;11.478;2023-02-21T08:01:51;2.93;;;2.43;;
4676;SDS011;2352;48.180;11.478;2023-02-21T08:04:54;5.63;;;3.60;;
4676;SDS011;2352;48.180;11.478;2023-02-21T08:07:57;4.50;;;4.20;;
4676;SDS011;2352;48.180;11.478;2023-02-21T08:11:00;4.30;;;3.90;;
4676;SDS011;2352;48.180;11.478;2023-02-21T08:14:04;5.90;;;2.87;;
4676;SDS011;2352;48.180;11.478;2023-02-21T08:17:08;3.73;;;3.53;;
4676;SDS011;2352;48.180;11.478;2023-02-21T08:20:10;3.80;;;3.40;;
4676;SDS011;2352;48.180;11.478;2023-02-21T08:23:13;3.43;;;3.13;;
4676;SDS011;2352;48.180;11.478;2023-02-21T08:26:18;4.23;;;3.60;;
4676;SDS011;2352;48.180;11.478;2023-02-21T08:29:22;6.07;;;4.37;;
4676;SDS011;2352;48.180;11.478;2023-02-21T08:32:25;5.43;;;2.50;;
4676;SDS011;2352;48.180;11.478;2023-02-21T08:35:28;8.57;;;3.03;;
4676;SDS011;2352;48.180;11.478;2023-02-21T08:38:31;2.43;;;2.20;;
4676;SDS011;2352;48.180;11.478;2023-02-21T08:41:35;3.97;;;2.80;;
4676;SDS011;2352;48.180;11.478;2023-02-21T08:44:41;5.27;;;2.63;;
4676;SDS011;2352;48.180;11.478;2023-02-21T08:47:45;3.00;;;2.23;;
4676;SDS011;2352;48.180;11.478;2023-02-21T08:50:48;4.47;;;3.03;;
4676;SDS011;2352;48.180;11.478;2023-02-21T08:53:52;4.43;;;2.73;;
4676;SDS011;2352;48.180;11.478;2023-02-21T08:56:55;3.47;;;2.67;;
4676;SDS011;2352;48.180;11.478;2023-02-21T09:00:00;2.07;;;1.83;;
4676;SDS011;2352;48.180;11.478;2023-02-21T09:03:04;3.33;;;2.03;;
4676;SDS011;2352;48.180;11.478;2023-02-21T09:06:07;3.43;;;1.93;;
4676;SDS011;2352;48.180;11.478;2023-02-21T09:09:11;4.70;;;1.60;;
4676;SDS011;2352;48.180;11.478;2023-02-21T09:12:14;3.10;;;2.00;;
4676;SDS011;2352;48.180;11.478;2023-02-21T09:15:19;3.77;;;1.93;;
4676;SDS011;2352;48.180;11.478;2023-02-21T09:18:22;6.67;;;1.87;;
4676;SDS011;2352;48.180;11.478;2023-02-21T09:21:25;1.63;;;1.50;;
4676;SDS011;2352;48.180;11.478;2023-02-21T09:24:28;3.13;;;2.40;;
4676;SDS011;2352;48.180;11.478;2023-02-21T09:27:32;1.97;;;1.40;;
4676;SDS011;2352;48.180;11.478;2023-02-21T09:30:39;3.07;;;1.53;;
4676;SDS011;2352;48.180;11.478;2023-02-21T09:33:42;2.37;;;1.40;;
4676;SDS011;2352;48.180;11.478;2023-02-21T09:36:45;3.20;;;1.67;;
4676;SDS011;2352;48.180;11.478;2023-02-21T09:39:51;1.80;;;1.67;;
4676;SDS011;2352;48.180;11.478;2023-02-21T09:42:54;2.03;;;1.80;;
4676;SDS011;2352;48.180;11.478;2023-02-21T09:46:01;5.53;;;2.97;;
4676;SDS011;2352;48.180;11.478;2023-02-21T09:49:09;2.17;;;1.23;;
4676;SDS011;2352;48.180;11.478;2023-02-21T09:52:19;5.23;;;1.33;;
4676;SDS011;2352;48.180;11.478;2023-02-21T09:55:29;1.77;;;1.30;;
4676;SDS011;2352;48.180;11.478;2023-02-21T09:58:35;4.60;;;1.37;;
4676;SDS011;2352;48.180;11.478;2023-02-21T10:01:52;6.13;;;2.50;;
4676;SDS011;2352;48.180;11.478;2023-02-21T10:05:06;2.13;;;1.30;;
4676;SDS011;2352;48.180;11.478;2023-02-21T10:08:19;1.43;;;1.03;;
4676;SDS011;2352;48.180;11.478;2023-02-21T10:11:32;2.90;;;2.10;;
4676;SDS011;2352;48.180;11.478;2023-02-21T10:14:47;1.83;;;1.30;;
4676;SDS011;2352;48.180;11.478;2023-02-21T10:18:21;1.17;;;1.00;;
4676;SDS011;2352;48.180;11.478;2023-02-21T10:21:31;4.47;;;1.47;;
4676;SDS011;2352;48.180;11.478;2023-02-21T10:24:36;1.27;;;0.90;;
4676;SDS011;2352;48.180;11.478;2023-02-21T10:27:39;5.00;;;2.10;;
4676;SDS011;2352;48.180;11.478;2023-02-21T10:30:42;6.27;;;1.40;;
4676;SDS011;2352;48.180;11.478;2023-02-21T10:33:48;6.67;;;1.80;;
4676;SDS011;2352;48.180;11.478;2023-02-21T10:36:51;1.03;;;0.93;;
4676;SDS011;2352;48.180;11.478;2023-02-21T10:39:57;1.23;;;1.00;;
4676;SDS011;2352;48.180;11.478;2023-02-21T10:43:08;1.57;;;1.33;;
4676;SDS011;2352;48.180;11.478;2023-02-21T10:46:16;1.73;;;1.23;;
4676;SDS011;2352;48.180;11.478;2023-02-21T10:49:27;3.63;;;0.90;;
4676;SDS011;2352;48.180;11.478;2023-02-21T10:52:35;2.20;;;0.90;;
4676;SDS011;2352;48.180;11.478;2023-02-21T10:55:38;1.03;;;0.80;;
4676;SDS011;2352;48.180;11.478;2023-02-21T10:58:43;0.97;;;0.70;;
4676;SDS011;2352;48.180;11.478;2023-02-21T11:01:48;1.40;;;1.07;;
4676;SDS011;2352;48.180;11.478;2023-02-21T11:04:53;1.00;;;0.90;;
4676;SDS011;2352;48.180;11.478;2023-02-21T11:07:58;1.87;;;0.80;;
4676;SDS011;2352;48.180;11.478;2023-02-21T11:11:02;1.30;;;0.90;;
4676;SDS011;2352;48.180;11.478;2023-02-21T11:14:09;1.17;;;0.77;;
4676;SDS011;2352;48.180;11.478;2023-02-21T11:17:22;1.03;;;0.70;;
4676;SDS011;2352;48.180;11.478;2023-02-21T11:20:27;2.50;;;1.27;;
4676;SDS011;2352;48.180;11.478;2023-02-21T11:23:30;0.50;;;0.50;;
4676;SDS011;2352;48.180;11.478;2023-02-21T11:26:35;1.90;;;1.07;;
4676;SDS011;2352;48.180;11.478;2023-02-21T11:29:46;0.70;;;0.70;;
4676;SDS011;2352;48.180;11.478;2023-02-21T11:32:52;1.40;;;0.67;;
4676;SDS011;2352;48.180;11.478;2023-02-21T11:36:07;2.23;;;0.80;;
4676;SDS011;2352;48.180;11.478;2023-02-21T11:39:14;3.03;;;0.90;;
4676;SDS011;2352;48.180;11.478;2023-02-21T11:42:23;0.73;;;0.73;;
4676;SDS011;2352;48.180;11.478;2023-02-21T11:45:29;0.90;;;0.73;;
4676;SDS011;2352;48.180;11.478;2023-02-21T11:48:36;1.57;;;0.90;;
4676;SDS011;2352;48.180;11.478;2023-02-21T11:51:44;3.43;;;1.00;;
4676;SDS011;2352;48.180;11.478;2023-02-21T11:54:50;0.77;;;0.77;;
4676;SDS011;2352;48.180;11.478;2023-02-21T11:57:54;1.10;;;1.03;;
4676;SDS011;2352;48.180;11.478;2023-02-21T12:01:08;3.23;;;0.83;;
4676;SDS011;2352;48.180;11.478;2023-02-21T12:04:23;1.97;;;0.80;;
4676;SDS011;2352;48.180;11.478;2023-02-21T12:07:38;1.43;;;0.90;;
4676;SDS011;2352;48.180;11.478;2023-02-21T12:10:49;8.47;;;1.00;;
4676;SDS011;2352;48.180;11.478;2023-02-21T12:14:05;1.30;;;0.87;;
4676;SDS011;2352;48.180;11.478;2023-02-21T12:17:25;2.53;;;1.00;;
4676;SDS011;2352;48.180;11.478;2023-02-21T12:20:51;1.60;;;1.33;;
4676;SDS011;2352;48.180;11.478;2023-02-21T12:24:11;1.57;;;1.00;;
4676;SDS011;2352;48.180;11.478;2023-02-21T12:27:29;1.30;;;1.00;;
4676;SDS011;2352;48.180;11.478;2023-02-21T12:30:46;2.40;;;1.03;;
4676;SDS011;2352;48.180;11.478;2023-02-21T12:34:07;2.40;;;1.10;;
4676;SDS011;2352;48.180;11.478;2023-02-21T12:37:22;0.83;;;0.83;;
4676;SDS011;2352;48.180;11.478;2023-02-21T12:40:36;2.37;;;0.80;;
4676;SDS011;2352;48.180;11.478;2023-02-21T12:43:49;1.57;;;1.00;;
4676;SDS011;2352;48.180;11.478;2023-02-21T12:46:58;1.00;;;0.90;;
4676;SDS011;2352;48.180;11.478;2023-02-21T12:50:07;1.40;;;0.90;;
4676;SDS011;2352;48.180;11.478;2023-02-21T12:53:16;1.40;;;1.30;;
4676;SDS011;2352;48.180;11.478;2023-02-21T12:56:25;1.60;;;0.95;;
4676;SDS011;2352;48.180;11.478;2023-02-21T12:59:42;0.93;;;0.82;;
4676;SDS011;2352;48.180;11.478;2023-02-21T13:02:54;1.50;;;1.40;;
4676;SDS011;2352;48.180;11.478;2023-02-21T13:06:03;0.90;;;0.80;;
4676;SDS011;2352;48.180;11.478;2023-02-21T13:09:13;2.20;;;0.90;;
4676;SDS011;2352;48.180;11.478;2023-02-21T13:12:26;1.13;;;1.02;;
4676;SDS011;2352;48.180;11.478;2023-02-21T13:15:32;1.25;;;1.15;;
4676;SDS011;2352;48.180;11.478;2023-02-21T13:18:38;4.13;;;0.73;;
4676;SDS011;2352;48.180;11.478;2023-02-21T13:21:53;0.85;;;0.85;;
4676;SDS011;2352;48.180;11.478;2023-02-21T13:25:05;1.98;;;1.20;;
4676;SDS011;2352;48.180;11.478;2023-02-21T13:28:19;3.13;;;1.00;;
4676;SDS011;2352;48.180;11.478;2023-02-21T13:31:24;1.65;;;1.10;;
4676;SDS011;2352;48.180;11.478;2023-02-21T13:34:30;1.33;;;1.23;;
4676;SDS011;2352;48.180;11.478;2023-02-21T13:37:43;1.80;;;0.80;;
4676;SDS011;2352;48.180;11.478;2023-02-21T13:40:48;1.65;;;0.77;;
4676;SDS011;2352;48.180;11.478;2023-02-21T13:43:55;0.80;;;0.80;;
4676;SDS011;2352;48.180;11.478;2023-02-21T13:47:07;0.82;;;0.60;;
4676;SDS011;2352;48.180;11.478;2023-02-21T13:54:02;1.33;;;0.80;;
4676;SDS011;2352;48.180;11.478;2023-02-21T14:00:46;1.88;;;0.70;;
4676;SDS011;2352;48.180;11.478;2023-02-21T14:03:51;2.83;;;0.70;;
4676;SDS011;2352;48.180;11.478;2023-02-21T14:06:55;0.98;;;0.75;;
4676;SDS011;2352;48.180;11.478;2023-02-21T14:09:58;0.60;;;0.57;;
4676;SDS011;2352;48.180;11.478;2023-02-21T14:13:02;0.52;;;0.52;;
4676;SDS011;2352;48.180;11.478;2023-02-21T14:16:14;1.65;;;1.00;;
4676;SDS011;2352;48.180;11.478;2023-02-21T14:19:23;0.93;;;0.45;;
4676;SDS011;2352;48.180;11.478;2023-02-21T14:22:28;0.40;;;0.40;;
4676;SDS011;2352;48.180;11.478;2023-02-21T14:25:32;0.38;;;0.38;;
4676;SDS011;2352;48.180;11.478;2023-02-21T14:32:22;0.70;;;0.60;;
4676;SDS011;2352;48.180;11.478;2023-02-21T14:35:32;0.40;;;0.40;;
4676;SDS011;2352;48.180;11.478;2023-02-21T14:38:37;3.75;;;0.90;;
4676;SDS011;2352;48.180;11.478;2023-02-21T14:41:48;0.90;;;0.65;;
4676;SDS011;2352;48.180;11.478;2023-02-21T14:48:42;1.10;;;0.98;;
4676;SDS011;2352;48.180;11.478;2023-02-21T14:52:01;0.73;;;0.50;;
4676;SDS011;2352;48.180;11.478;2023-02-21T14:55:33;0.63;;;0.40;;
4676;SDS011;2352;48.180;11.478;2023-02-21T14:59:04;0.60;;;0.60;;
4676;SDS011;2352;48.180;11.478;2023-02-21T15:02:22;0.82;;;0.40;;
4676;SDS011;2352;48.180;11.478;2023-02-21T15:05:32;1.60;;;0.77;;
4676;SDS011;2352;48.180;11.478;2023-02-21T15:08:42;0.82;;;0.47;;
4676;SDS011;2352;48.180;11.478;2023-02-21T15:11:48;1.40;;;0.55;;
4676;SDS011;2352;48.180;11.478;2023-02-21T15:14:51;1.30;;;0.60;;
4676;SDS011;2352;48.180;11.478;2023-02-21T15:17:55;0.52;;;0.50;;
4676;SDS011;2352;48.180;11.478;2023-02-21T15:21:06;3.53;;;0.55;;
4676;SDS011;2352;48.180;11.478;2023-02-21T15:24:18;1.67;;;0.68;;
4676;SDS011;2352;48.180;11.478;2023-02-21T15:27:22;0.50;;;0.50;;
4676;SDS011;2352;48.180;11.478;2023-02-21T15:30:26;0.30;;;0.30;;
4676;SDS011;2352;48.180;11.478;2023-02-21T15:33:35;0.70;;;0.50;;
4676;SDS011;2352;48.180;11.478;2023-02-21T15:36:40;1.92;;;0.63;;
4676;SDS011;2352;48.180;11.478;2023-02-21T15:39:44;1.02;;;0.60;;
4676;SDS011;2352;48.180;11.478;2023-02-21T15:42:55;0.68;;;0.60;;
4676;SDS011;2352;48.180;11.478;2023-02-21T15:45:59;2.45;;;0.73;;
4676;SDS011;2352;48.180;11.478;2023-02-21T15:49:04;1.60;;;0.47;;
4676;SDS011;2352;48.180;11.478;2023-02-21T15:52:24;0.50;;;0.50;;
4676;SDS011;2352;48.180;11.478;2023-02-21T15:55:30;1.15;;;0.63;;
4676;SDS011;2352;48.180;11.478;2023-02-21T15:58:33;1.10;;;0.65;;
4676;SDS011;2352;48.180;11.478;2023-02-21T16:01:36;1.45;;;0.60;;
4676;SDS011;2352;48.180;11.478;2023-02-21T16:04:40;3.08;;;0.93;;
4676;SDS011;2352;48.180;11.478;2023-02-21T16:07:45;3.17;;;0.93;;
4676;SDS011;2352;48.180;11.478;2023-02-21T16:10:59;5.82;;;0.88;;
4676;SDS011;2352;48.180;11.478;2023-02-21T16:14:03;2.88;;;0.70;;
4676;SDS011;2352;48.180;11.478;2023-02-21T16:17:15;2.67;;;1.13;;
4676;SDS011;2352;48.180;11.478;2023-02-21T16:20:26;2.57;;;1.00;;
4676;SDS011;2352;48.180;11.478;2023-02-21T16:23:33;2.20;;;0.80;;
4676;SDS011;2352;48.180;11.478;2023-02-21T16:26:39;3.10;;;1.10;;
4676;SDS011;2352;48.180;11.478;2023-02-21T16:29:42;7.30;;;1.70;;
4676;SDS011;2352;48.180;11.478;2023-02-21T16:32:45;4.87;;;1.00;;
4676;SDS011;2352;48.180;11.478;2023-02-21T16:35:51;4.37;;;1.47;;
4676;SDS011;2352;48.180;11.478;2023-02-21T16:38:56;5.73;;;1.67;;
4676;SDS011;2352;48.180;11.478;2023-02-21T16:41:59;10.63;;;2.50;;
4676;SDS011;2352;48.180;11.478;2023-02-21T16:45:03;1.97;;;1.60;;
4676;SDS011;2352;48.180;11.478;2023-02-21T16:48:09;12.07;;;1.80;;
4676;SDS011;2352;48.180;11.478;2023-02-21T16:51:17;5.50;;;1.93;;
4676;SDS011;2352;48.180;11.478;2023-02-21T16:54:22;5.50;;;1.87;;
4676;SDS011;2352;48.180;11.478;2023-02-21T16:57:25;7.73;;;1.57;;
4676;SDS011;2352;48.180;11.478;2023-02-21T17:00:28;6.83;;;1.33;;
4676;SDS011;2352;48.180;11.478;2023-02-21T17:03:33;3.27;;;1.40;;
4676;SDS011;2352;48.180;11.478;2023-02-21T17:06:36;1.50;;;1.33;;
4676;SDS011;2352;48.180;11.478;2023-02-21T17:09:40;13.43;;;2.37;;
4676;SDS011;2352;48.180;11.478;2023-02-21T17:12:43;8.50;;;2.37;;
4676;SDS011;2352;48.180;11.478;2023-02-21T17:15:46;3.83;;;1.80;;
4676;SDS011;2352;48.180;11.478;2023-02-21T17:18:49;10.27;;;2.57;;
4676;SDS011;2352;48.180;11.478;2023-02-21T17:21:52;6.43;;;1.63;;
4676;SDS011;2352;48.180;11.478;2023-02-21T17:24:59;11.70;;;1.43;;
4676;SDS011;2352;48.180;11.478;2023-02-21T17:28:02;3.07;;;1.80;;
4676;SDS011;2352;48.180;11.478;2023-02-21T17:31:05;5.80;;;2.10;;
4676;SDS011;2352;48.180;11.478;2023-02-21T17:34:10;5.90;;;1.70;;
4676;SDS011;2352;48.180;11.478;2023-02-21T17:37:13;5.13;;;2.47;;
4676;SDS011;2352;48.180;11.478;2023-02-21T17:40:18;12.00;;;3.53;;
4676;SDS011;2352;48.180;11.478;2023-02-21T17:43:22;13.33;;;4.03;;
4676;SDS011;2352;48.180;11.478;2023-02-21T17:46:25;7.30;;;2.70;;
4676;SDS011;2352;48.180;11.478;2023-02-21T17:49:28;11.87;;;3.30;;
4676;SDS011;2352;48.180;11.478;2023-02-21T17:52:31;8.77;;;4.03;;
4676;SDS011;2352;48.180;11.478;2023-02-21T17:55:35;19.43;;;6.00;;
4676;SDS011;2352;48.180;11.478;2023-02-21T17:58:38;10.37;;;5.10;;
4676;SDS011;2352;48.180;11.478;2023-02-21T18:01:41;6.13;;;5.27;;
4676;SDS011;2352;48.180;11.478;2023-02-21T18:04:44;11.80;;;6.07;;
4676;SDS011;2352;48.180;11.478;2023-02-21T18:07:49;22.23;;;7.03;;
4676;SDS011;2352;48.180;11.478;2023-02-21T18:10:55;9.97;;;6.37;;
4676;SDS011;2352;48.180;11.478;2023-02-21T18:13:58;12.87;;;6.03;;
4676;SDS011;2352;48.180;11.478;2023-02-21T18:17:01;16.70;;;5.70;;
4676;SDS011;2352;48.180;11.478;2023-02-21T18:20:04;11.63;;;5.73;;
4676;SDS011;2352;48.180;11.478;2023-02-21T18:23:09;8.50;;;5.90;;
4676;SDS011;2352;48.180;11.478;2023-02-21T18:26:14;12.50;;;6.57;;
4676;SDS011;2352;48.180;11.478;2023-02-21T18:29:17;12.53;;;6.27;;
4676;SDS011;2352;48.180;11.478;2023-02-21T18:32:20;7.13;;;6.03;;
4676;SDS011;2352;48.180;11.478;2023-02-21T18:35:23;11.47;;;6.60;;
4676;SDS011;2352;48.180;11.478;2023-02-21T18:38:26;7.57;;;6.67;;
4676;SDS011;2352;48.180;11.478;2023-02-21T18:41:31;7.87;;;7.07;;
4676;SDS011;2352;48.180;11.478;2023-02-21T18:44:34;14.23;;;7.50;;
4676;SDS011;2352;48.180;11.478;2023-02-21T18:47:37;9.70;;;6.77;;
4676;SDS011;2352;48.180;11.478;2023-02-21T18:50:40;10.17;;;7.63;;
4676;SDS011;2352;48.180;11.478;2023-02-21T18:53:44;14.57;;;7.27;;
4676;SDS011;2352;48.180;11.478;2023-02-21T18:56:50;12.33;;;8.07;;
4676;SDS011;2352;48.180;11.478;2023-02-21T18:59:53;14.33;;;8.23;;
4676;SDS011;2352;48.180;11.478;2023-02-21T19:02:56;8.93;;;8.03;;
4676;SDS011;2352;48.180;11.478;2023-02-21T19:05:59;10.80;;;8.63;;
4676;SDS011;2352;48.180;11.478;2023-02-21T19:09:02;13.13;;;8.87;;
4676;SDS011;2352;48.180;11.478;2023-02-21T19:12:07;13.83;;;7.87;;
4676;SDS011;2352;48.180;11.478;2023-02-21T19:15:09;13.20;;;9.60;;
4676;SDS011;2352;48.180;11.478;2023-02-21T19:18:12;11.80;;;9.90;;
4676;SDS011;2352;48.180;11.478;2023-02-21T19:21:15;12.37;;;9.27;;
4676;SDS011;2352;48.180;11.478;2023-02-21T19:24:18;17.77;;;10.73;;